sensor_id;sensor_type;location;lat;lon;timestamp;temperature;humidity
3202;DHT22;34843;48.744;8.958;2022-12-18T00:02:09;-11.70;99.90
3202;DHT22;34843;48.744;8.958;2022-12-18T00:04:34;-11.70;99.90
3202;DHT22;34843;48.744;8.958;2022-12-18T00:07:00;-11.80;99.90
3202;DHT22;34843;48.744;8.958;2022-12-18T00:09:25;-11.70;99.90
3202;DHT22;34843;48.744;8.958;2022-12-18T00:11:51;-11.70;99.90
3202;DHT22;34843;48.744;8.958;2022-12-18T00:14:16;-11.80;99.90
3202;DHT22;34843;48.744;8.958;2022-12-18T00:16:45;-11.80;99.90
3202;DHT22;34843;48.744;8.958;2022-12-18T00:19:12;-11.80;99.90
3202;DHT22;34843;48.744;8.958;2022-12-18T00:21:38;-11.80;99.90
3202;DHT22;34843;48.744;8.958;2022-12-18T00:24:03;-11.80;99.90
3202;DHT22;34843;48.744;8.958;2022-12-18T00:26:31;-11.80;99.90
3202;DHT22;34843;48.744;8.958;2022-12-18T00:29:04;-11.80;99.90
3202;DHT22;34843;48.744;8.958;2022-12-18T00:31:31;-11.90;99.90
3202;DHT22;34843;48.744;8.958;2022-12-18T00:33:57;-11.80;99.90
3202;DHT22;34843;48.744;8.958;2022-12-18T00:36:25;-11.90;99.90
3202;DHT22;34843;48.744;8.958;2022-12-18T00:38:53;-11.90;99.90
3202;DHT22;34843;48.744;8.958;2022-12-18T00:41:19;-11.90;99.90
3202;DHT22;34843;48.744;8.958;2022-12-18T00:44:05;-11.90;99.90
3202;DHT22;34843;48.744;8.958;2022-12-18T00:46:31;-11.90;99.90
3202;DHT22;34843;48.744;8.958;2022-12-18T00:48:56;-12.00;99.90
3202;DHT22;34843;48.744;8.958;2022-12-18T00:51:22;-11.90;99.90
3202;DHT22;34843;48.744;8.958;2022-12-18T00:53:48;-12.00;99.90
3202;DHT22;34843;48.744;8.958;2022-12-18T00:56:14;-11.90;99.90
3202;DHT22;34843;48.744;8.958;2022-12-18T00:58:39;-11.90;99.90
3202;DHT22;34843;48.744;8.958;2022-12-18T01:01:05;-11.90;99.90
3202;DHT22;34843;48.744;8.958;2022-12-18T01:03:31;-11.90;99.90
3202;DHT22;34843;48.744;8.958;2022-12-18T01:05:57;-11.90;99.90
3202;DHT22;34843;48.744;8.958;2022-12-18T01:08:23;-11.90;99.90
3202;DHT22;34843;48.744;8.958;2022-12-18T01:10:48;-11.90;99.90
3202;DHT22;34843;48.744;8.958;2022-12-18T01:13:14;-11.90;99.90
3202;DHT22;34843;48.744;8.958;2022-12-18T01:15:39;-12.00;99.90
3202;DHT22;34843;48.744;8.958;2022-12-18T01:18:06;-12.00;99.90
3202;DHT22;34843;48.744;8.958;2022-12-18T01:20:32;-12.00;99.90
3202;DHT22;34843;48.744;8.958;2022-12-18T01:22:57;-11.90;99.90
3202;DHT22;34843;48.744;8.958;2022-12-18T01:25:23;-11.90;99.90
3202;DHT22;34843;48.744;8.958;2022-12-18T01:27:48;-12.00;99.90
3202;DHT22;34843;48.744;8.958;2022-12-18T01:30:14;-12.00;99.90
3202;DHT22;34843;48.744;8.958;2022-12-18T01:32:40;-12.00;99.90
3202;DHT22;34843;48.744;8.958;2022-12-18T01:35:06;-12.10;99.90
3202;DHT22;34843;48.744;8.958;2022-12-18T01:37:32;-12.10;99.90
3202;DHT22;34843;48.744;8.958;2022-12-18T01:42:27;-11.60;99.90
3202;DHT22;34843;48.744;8.958;2022-12-18T01:47:38;-12.00;99.90
3202;DHT22;34843;48.744;8.958;2022-12-18T01:50:09;-12.00;99.90
3202;DHT22;34843;48.744;8.958;2022-12-18T01:52:36;-11.90;99.90
3202;DHT22;34843;48.744;8.958;2022-12-18T01:55:06;-11.80;99.90
3202;DHT22;34843;48.744;8.958;2022-12-18T01:57:32;-11.70;99.90
3202;DHT22;34843;48.744;8.958;2022-12-18T02:00:01;-11.60;99.90
3202;DHT22;34843;48.744;8.958;2022-12-18T02:02:30;-11.50;99.90
3202;DHT22;34843;48.744;8.958;2022-12-18T02:04:56;-11.40;99.90
3202;DHT22;34843;48.744;8.958;2022-12-18T02:08:16;-11.30;99.90
3202;DHT22;34843;48.744;8.958;2022-12-18T02:16:13;-11.20;99.90
3202;DHT22;34843;48.744;8.958;2022-12-18T02:18:43;-11.20;99.90
3202;DHT22;34843;48.744;8.958;2022-12-18T02:25:11;-11.10;99.90
3202;DHT22;34843;48.744;8.958;2022-12-18T02:27:05;-11.00;99.90
3202;DHT22;34843;48.744;8.958;2022-12-18T02:29:36;-11.00;99.90
3202;DHT22;34843;48.744;8.958;2022-12-18T02:32:07;-11.00;99.90
3202;DHT22;34843;48.744;8.958;2022-12-18T02:34:38;-10.90;99.90
3202;DHT22;34843;48.744;8.958;2022-12-18T02:37:07;-10.90;99.90
3202;DHT22;34843;48.744;8.958;2022-12-18T02:39:39;-10.90;99.90
3202;DHT22;34843;48.744;8.958;2022-12-18T02:42:05;-10.80;99.90
3202;DHT22;34843;48.744;8.958;2022-12-18T02:44:34;-10.90;99.90
3202;DHT22;34843;48.744;8.958;2022-12-18T02:47:01;-10.90;99.90
3202;DHT22;34843;48.744;8.958;2022-12-18T02:49:49;-10.90;99.90
3202;DHT22;34843;48.744;8.958;2022-12-18T02:58:15;-10.80;99.90
3202;DHT22;34843;48.744;8.958;2022-12-18T03:00:53;-10.80;99.90
3202;DHT22;34843;48.744;8.958;2022-12-18T03:03:33;-10.80;99.90
3202;DHT22;34843;48.744;8.958;2022-12-18T03:06:10;-10.80;99.90
3202;DHT22;34843;48.744;8.958;2022-12-18T03:08:41;-10.80;99.90
3202;DHT22;34843;48.744;8.958;2022-12-18T03:11:09;-10.70;99.90
3202;DHT22;34843;48.744;8.958;2022-12-18T03:13:49;-10.70;99.90
3202;DHT22;34843;48.744;8.958;2022-12-18T03:16:25;-10.60;99.90
3202;DHT22;34843;48.744;8.958;2022-12-18T03:18:57;-10.50;99.90
3202;DHT22;34843;48.744;8.958;2022-12-18T03:21:27;-10.50;99.90
3202;DHT22;34843;48.744;8.958;2022-12-18T03:23:53;-10.40;99.90
3202;DHT22;34843;48.744;8.958;2022-12-18T03:26:22;-10.50;99.90
3202;DHT22;34843;48.744;8.958;2022-12-18T03:28:53;-10.40;99.90
3202;DHT22;34843;48.744;8.958;2022-12-18T03:31:22;-10.40;99.90
3202;DHT22;34843;48.744;8.958;2022-12-18T03:34:01;-10.40;99.90
3202;DHT22;34843;48.744;8.958;2022-12-18T03:36:29;-10.30;99.90
3202;DHT22;34843;48.744;8.958;2022-12-18T03:38:55;-10.30;99.90
3202;DHT22;34843;48.744;8.958;2022-12-18T03:41:45;-10.30;99.90
3202;DHT22;34843;48.744;8.958;2022-12-18T03:44:20;-10.30;99.90
3202;DHT22;34843;48.744;8.958;2022-12-18T03:46:48;-10.30;99.90
3202;DHT22;34843;48.744;8.958;2022-12-18T03:49:23;-10.30;99.90
3202;DHT22;34843;48.744;8.958;2022-12-18T03:52:20;-10.20;99.90
3202;DHT22;34843;48.744;8.958;2022-12-18T03:54:46;-10.20;99.90
3202;DHT22;34843;48.744;8.958;2022-12-18T03:57:23;-10.20;99.90
3202;DHT22;34843;48.744;8.958;2022-12-18T03:59:54;-10.20;99.90
3202;DHT22;34843;48.744;8.958;2022-12-18T04:02:22;-10.10;99.90
3202;DHT22;34843;48.744;8.958;2022-12-18T04:04:52;-10.10;99.90
3202;DHT22;34843;48.744;8.958;2022-12-18T04:07:20;-10.20;99.90
3202;DHT22;34843;48.744;8.958;2022-12-18T04:09:48;-10.10;99.90
3202;DHT22;34843;48.744;8.958;2022-12-18T04:12:14;-10.00;99.90
3202;DHT22;34843;48.744;8.958;2022-12-18T04:14:39;-10.00;99.90
3202;DHT22;34843;48.744;8.958;2022-12-18T04:17:05;-10.00;99.90
3202;DHT22;34843;48.744;8.958;2022-12-18T04:19:30;-9.90;99.90
3202;DHT22;34843;48.744;8.958;2022-12-18T04:21:56;-9.90;99.90
3202;DHT22;34843;48.744;8.958;2022-12-18T04:24:21;-9.80;99.90
3202;DHT22;34843;48.744;8.958;2022-12-18T04:26:47;-9.80;99.90
3202;DHT22;34843;48.744;8.958;2022-12-18T04:29:12;-9.70;99.90
3202;DHT22;34843;48.744;8.958;2022-12-18T04:31:38;-9.60;99.90
3202;DHT22;34843;48.744;8.958;2022-12-18T04:34:03;-9.50;99.90
3202;DHT22;34843;48.744;8.958;2022-12-18T04:36:29;-9.50;99.90
3202;DHT22;34843;48.744;8.958;2022-12-18T04:38:55;-9.50;99.90
3202;DHT22;34843;48.744;8.958;2022-12-18T04:41:21;-9.40;99.90
3202;DHT22;34843;48.744;8.958;2022-12-18T04:43:46;-9.40;99.90
3202;DHT22;34843;48.744;8.958;2022-12-18T04:46:12;-9.30;99.90
3202;DHT22;34843;48.744;8.958;2022-12-18T04:48:37;-9.30;99.90
3202;DHT22;34843;48.744;8.958;2022-12-18T04:51:04;-9.20;99.90
3202;DHT22;34843;48.744;8.958;2022-12-18T04:53:30;-9.10;99.90
3202;DHT22;34843;48.744;8.958;2022-12-18T04:56:05;-9.00;99.90
3202;DHT22;34843;48.744;8.958;2022-12-18T04:58:32;-9.00;99.90
3202;DHT22;34843;48.744;8.958;2022-12-18T05:00:57;-8.90;99.90
3202;DHT22;34843;48.744;8.958;2022-12-18T05:03:23;-8.90;99.90
3202;DHT22;34843;48.744;8.958;2022-12-18T05:05:52;-8.80;99.90
3202;DHT22;34843;48.744;8.958;2022-12-18T05:08:18;-8.70;99.90
3202;DHT22;34843;48.744;8.958;2022-12-18T05:10:44;-8.60;99.90
3202;DHT22;34843;48.744;8.958;2022-12-18T05:13:09;-8.60;99.90
3202;DHT22;34843;48.744;8.958;2022-12-18T05:15:35;-8.50;99.90
3202;DHT22;34843;48.744;8.958;2022-12-18T05:18:01;-8.40;99.90
3202;DHT22;34843;48.744;8.958;2022-12-18T05:20:27;-8.30;99.90
3202;DHT22;34843;48.744;8.958;2022-12-18T05:22:54;-8.20;99.90
3202;DHT22;34843;48.744;8.958;2022-12-18T05:25:20;-8.10;99.90
3202;DHT22;34843;48.744;8.958;2022-12-18T05:27:46;-8.10;99.90
3202;DHT22;34843;48.744;8.958;2022-12-18T05:30:13;-8.00;99.90
3202;DHT22;34843;48.744;8.958;2022-12-18T05:32:39;-7.90;99.90
3202;DHT22;34843;48.744;8.958;2022-12-18T05:35:07;-7.90;99.90
3202;DHT22;34843;48.744;8.958;2022-12-18T05:37:32;-7.80;99.90
3202;DHT22;34843;48.744;8.958;2022-12-18T05:39:58;-7.80;99.90
3202;DHT22;34843;48.744;8.958;2022-12-18T05:42:23;-7.70;99.90
3202;DHT22;34843;48.744;8.958;2022-12-18T05:44:49;-7.70;99.90
3202;DHT22;34843;48.744;8.958;2022-12-18T05:47:15;-7.70;99.90
3202;DHT22;34843;48.744;8.958;2022-12-18T05:49:40;-7.60;99.90
3202;DHT22;34843;48.744;8.958;2022-12-18T05:52:06;-7.60;99.90
3202;DHT22;34843;48.744;8.958;2022-12-18T05:54:31;-7.60;99.90
3202;DHT22;34843;48.744;8.958;2022-12-18T05:56:58;-7.60;99.90
3202;DHT22;34843;48.744;8.958;2022-12-18T05:59:24;-7.60;99.90
3202;DHT22;34843;48.744;8.958;2022-12-18T06:01:49;-7.70;99.90
3202;DHT22;34843;48.744;8.958;2022-12-18T06:04:15;-7.70;99.90
3202;DHT22;34843;48.744;8.958;2022-12-18T06:06:41;-7.70;99.90
3202;DHT22;34843;48.744;8.958;2022-12-18T06:09:06;-7.70;99.90
3202;DHT22;34843;48.744;8.958;2022-12-18T06:11:35;-7.70;99.90
3202;DHT22;34843;48.744;8.958;2022-12-18T06:14:02;-7.70;99.90
3202;DHT22;34843;48.744;8.958;2022-12-18T06:16:28;-7.80;99.90
3202;DHT22;34843;48.744;8.958;2022-12-18T06:19:02;-7.70;99.90
3202;DHT22;34843;48.744;8.958;2022-12-18T06:21:29;-7.80;99.90
3202;DHT22;34843;48.744;8.958;2022-12-18T06:23:55;-7.90;99.90
3202;DHT22;34843;48.744;8.958;2022-12-18T06:26:21;-8.00;99.90
3202;DHT22;34843;48.744;8.958;2022-12-18T06:28:47;-8.00;99.90
3202;DHT22;34843;48.744;8.958;2022-12-18T06:31:12;-8.10;99.90
3202;DHT22;34843;48.744;8.958;2022-12-18T06:33:38;-8.20;99.90
3202;DHT22;34843;48.744;8.958;2022-12-18T06:36:07;-8.20;99.90
3202;DHT22;34843;48.744;8.958;2022-12-18T06:38:36;-8.30;99.90
3202;DHT22;34843;48.744;8.958;2022-12-18T06:41:07;-8.30;99.90
3202;DHT22;34843;48.744;8.958;2022-12-18T06:43:33;-8.40;99.90
3202;DHT22;34843;48.744;8.958;2022-12-18T06:46:02;-8.50;99.90
3202;DHT22;34843;48.744;8.958;2022-12-18T06:48:28;-8.50;99.90
3202;DHT22;34843;48.744;8.958;2022-12-18T06:50:53;-8.50;99.90
3202;DHT22;34843;48.744;8.958;2022-12-18T06:53:19;-8.50;99.90
3202;DHT22;34843;48.744;8.958;2022-12-18T06:55:44;-8.60;99.90
3202;DHT22;34843;48.744;8.958;2022-12-18T06:58:10;-8.60;99.90
3202;DHT22;34843;48.744;8.958;2022-12-18T07:00:35;-8.60;99.90
3202;DHT22;34843;48.744;8.958;2022-12-18T07:03:01;-8.60;99.90
3202;DHT22;34843;48.744;8.958;2022-12-18T07:05:26;-8.70;99.90
3202;DHT22;34843;48.744;8.958;2022-12-18T07:07:52;-8.70;99.90
3202;DHT22;34843;48.744;8.958;2022-12-18T07:10:17;-8.70;99.90
3202;DHT22;34843;48.744;8.958;2022-12-18T07:12:43;-8.70;99.90
3202;DHT22;34843;48.744;8.958;2022-12-18T07:15:09;-8.80;99.90
3202;DHT22;34843;48.744;8.958;2022-12-18T07:17:35;-8.80;99.90
3202;DHT22;34843;48.744;8.958;2022-12-18T07:20:00;-8.90;99.90
3202;DHT22;34843;48.744;8.958;2022-12-18T07:22:26;-9.00;99.90
3202;DHT22;34843;48.744;8.958;2022-12-18T07:24:52;-9.10;99.90
3202;DHT22;34843;48.744;8.958;2022-12-18T07:27:17;-9.20;99.90
3202;DHT22;34843;48.744;8.958;2022-12-18T07:29:43;-9.30;99.90
3202;DHT22;34843;48.744;8.958;2022-12-18T07:32:08;-9.30;99.90
3202;DHT22;34843;48.744;8.958;2022-12-18T07:34:34;-9.30;99.90
3202;DHT22;34843;48.744;8.958;2022-12-18T07:37:00;-9.30;99.90
3202;DHT22;34843;48.744;8.958;2022-12-18T07:39:26;-9.30;99.90
3202;DHT22;34843;48.744;8.958;2022-12-18T07:41:51;-9.30;99.90
3202;DHT22;34843;48.744;8.958;2022-12-18T07:44:36;-9.20;99.90
3202;DHT22;34843;48.744;8.958;2022-12-18T07:47:01;-9.20;99.90
3202;DHT22;34843;48.744;8.958;2022-12-18T07:49:27;-9.20;99.90
3202;DHT22;34843;48.744;8.958;2022-12-18T07:51:55;-9.30;99.90
3202;DHT22;34843;48.744;8.958;2022-12-18T07:54:22;-9.20;99.90
3202;DHT22;34843;48.744;8.958;2022-12-18T07:56:47;-9.20;99.90
3202;DHT22;34843;48.744;8.958;2022-12-18T07:59:13;-9.20;99.90
3202;DHT22;34843;48.744;8.958;2022-12-18T08:01:38;-9.20;99.90
3202;DHT22;34843;48.744;8.958;2022-12-18T08:04:04;-9.10;99.90
3202;DHT22;34843;48.744;8.958;2022-12-18T08:06:30;-9.10;99.90
3202;DHT22;34843;48.744;8.958;2022-12-18T08:08:56;-9.00;99.90
3202;DHT22;34843;48.744;8.958;2022-12-18T08:11:23;-8.90;99.90
3202;DHT22;34843;48.744;8.958;2022-12-18T08:13:49;-9.00;99.90
3202;DHT22;34843;48.744;8.958;2022-12-18T08:16:15;-8.90;99.90
3202;DHT22;34843;48.744;8.958;2022-12-18T08:18:41;-8.90;99.90
3202;DHT22;34843;48.744;8.958;2022-12-18T08:21:15;-8.80;99.90
3202;DHT22;34843;48.744;8.958;2022-12-18T08:23:41;-8.80;99.90
3202;DHT22;34843;48.744;8.958;2022-12-18T08:26:07;-8.80;99.90
3202;DHT22;34843;48.744;8.958;2022-12-18T08:28:33;-8.80;99.90
3202;DHT22;34843;48.744;8.958;2022-12-18T08:30:59;-8.80;99.90
3202;DHT22;34843;48.744;8.958;2022-12-18T08:33:25;-8.70;99.90
3202;DHT22;34843;48.744;8.958;2022-12-18T08:35:51;-8.70;99.90
3202;DHT22;34843;48.744;8.958;2022-12-18T08:38:17;-8.60;99.90
3202;DHT22;34843;48.744;8.958;2022-12-18T08:40:42;-8.50;99.90
3202;DHT22;34843;48.744;8.958;2022-12-18T08:43:10;-8.50;99.90
3202;DHT22;34843;48.744;8.958;2022-12-18T08:45:54;-8.40;99.90
3202;DHT22;34843;48.744;8.958;2022-12-18T08:48:20;-8.30;99.90
3202;DHT22;34843;48.744;8.958;2022-12-18T08:50:56;-8.20;99.90
3202;DHT22;34843;48.744;8.958;2022-12-18T08:53:22;-8.10;99.90
3202;DHT22;34843;48.744;8.958;2022-12-18T08:55:49;-8.00;99.90
3202;DHT22;34843;48.744;8.958;2022-12-18T08:58:14;-7.90;99.90
3202;DHT22;34843;48.744;8.958;2022-12-18T09:00:40;-7.80;99.90
3202;DHT22;34843;48.744;8.958;2022-12-18T09:03:11;-7.70;99.90
3202;DHT22;34843;48.744;8.958;2022-12-18T09:05:37;-7.70;99.90
3202;DHT22;34843;48.744;8.958;2022-12-18T09:08:03;-7.60;99.90
3202;DHT22;34843;48.744;8.958;2022-12-18T09:10:28;-7.60;99.90
3202;DHT22;34843;48.744;8.958;2022-12-18T09:12:54;-7.50;99.90
3202;DHT22;34843;48.744;8.958;2022-12-18T09:15:21;-7.40;99.90
3202;DHT22;34843;48.744;8.958;2022-12-18T09:17:47;-7.40;99.90
3202;DHT22;34843;48.744;8.958;2022-12-18T09:20:13;-7.40;99.90
3202;DHT22;34843;48.744;8.958;2022-12-18T09:22:39;-7.30;99.90
3202;DHT22;34843;48.744;8.958;2022-12-18T09:25:04;-7.30;99.90
3202;DHT22;34843;48.744;8.958;2022-12-18T09:27:33;-7.20;99.90
3202;DHT22;34843;48.744;8.958;2022-12-18T09:29:59;-7.10;99.90
3202;DHT22;34843;48.744;8.958;2022-12-18T09:32:24;-7.10;99.90
3202;DHT22;34843;48.744;8.958;2022-12-18T09:34:50;-7.00;99.90
3202;DHT22;34843;48.744;8.958;2022-12-18T09:37:15;-6.90;99.90
3202;DHT22;34843;48.744;8.958;2022-12-18T09:39:41;-6.80;99.90
3202;DHT22;34843;48.744;8.958;2022-12-18T09:42:19;-6.70;99.90
3202;DHT22;34843;48.744;8.958;2022-12-18T09:44:50;-6.60;99.90
3202;DHT22;34843;48.744;8.958;2022-12-18T09:47:36;-6.40;99.90
3202;DHT22;34843;48.744;8.958;2022-12-18T09:50:22;-6.30;99.90
3202;DHT22;34843;48.744;8.958;2022-12-18T09:52:53;-6.10;99.90
3202;DHT22;34843;48.744;8.958;2022-12-18T09:55:33;-6.00;99.90
3202;DHT22;34843;48.744;8.958;2022-12-18T10:00:36;-5.70;99.90
3202;DHT22;34843;48.744;8.958;2022-12-18T10:03:13;-5.70;99.90
3202;DHT22;34843;48.744;8.958;2022-12-18T10:05:47;-5.50;99.90
3202;DHT22;34843;48.744;8.958;2022-12-18T10:10:52;-5.40;99.90
3202;DHT22;34843;48.744;8.958;2022-12-18T10:13:35;-5.30;99.90
3202;DHT22;34843;48.744;8.958;2022-12-18T10:18:58;-5.10;99.90
3202;DHT22;34843;48.744;8.958;2022-12-18T10:24:35;-4.90;99.90
3202;DHT22;34843;48.744;8.958;2022-12-18T10:27:26;-4.90;99.90
3202;DHT22;34843;48.744;8.958;2022-12-18T10:29:52;-4.80;99.90
3202;DHT22;34843;48.744;8.958;2022-12-18T10:32:26;-4.60;99.90
3202;DHT22;34843;48.744;8.958;2022-12-18T10:34:55;-4.60;99.90
3202;DHT22;34843;48.744;8.958;2022-12-18T10:37:23;-4.60;99.90
3202;DHT22;34843;48.744;8.958;2022-12-18T10:40:10;-4.60;99.90
3202;DHT22;34843;48.744;8.958;2022-12-18T10:42:37;-4.60;99.90
3202;DHT22;34843;48.744;8.958;2022-12-18T10:45:14;-4.50;99.90
3202;DHT22;34843;48.744;8.958;2022-12-18T10:47:58;-4.40;99.90
3202;DHT22;34843;48.744;8.958;2022-12-18T10:50:31;-4.30;99.90
3202;DHT22;34843;48.744;8.958;2022-12-18T10:53:00;-4.30;99.90
3202;DHT22;34843;48.744;8.958;2022-12-18T10:55:33;-4.10;99.90
3202;DHT22;34843;48.744;8.958;2022-12-18T11:03:36;-3.90;99.90
3202;DHT22;34843;48.744;8.958;2022-12-18T11:08:36;-3.80;99.90
3202;DHT22;34843;48.744;8.958;2022-12-18T11:11:02;-3.70;99.90
3202;DHT22;34843;48.744;8.958;2022-12-18T11:13:30;-3.70;99.90
3202;DHT22;34843;48.744;8.958;2022-12-18T11:15:56;-3.60;99.90
3202;DHT22;34843;48.744;8.958;2022-12-18T11:18:28;-3.50;99.90
3202;DHT22;34843;48.744;8.958;2022-12-18T11:21:06;-3.40;99.90
3202;DHT22;34843;48.744;8.958;2022-12-18T11:23:34;-3.40;99.90
3202;DHT22;34843;48.744;8.958;2022-12-18T11:26:02;-3.30;99.90
3202;DHT22;34843;48.744;8.958;2022-12-18T11:28:49;-3.30;99.90
3202;DHT22;34843;48.744;8.958;2022-12-18T11:31:26;-3.30;99.90
3202;DHT22;34843;48.744;8.958;2022-12-18T11:36:41;-3.20;99.90
3202;DHT22;34843;48.744;8.958;2022-12-18T11:47:22;-3.10;99.90
3202;DHT22;34843;48.744;8.958;2022-12-18T11:49:51;-3.10;99.90
3202;DHT22;34843;48.744;8.958;2022-12-18T11:52:27;-3.00;99.90
3202;DHT22;34843;48.744;8.958;2022-12-18T11:54:56;-2.80;99.90
3202;DHT22;34843;48.744;8.958;2022-12-18T12:00:16;-2.70;99.90
3202;DHT22;34843;48.744;8.958;2022-12-18T12:03:06;-2.70;99.90
3202;DHT22;34843;48.744;8.958;2022-12-18T12:08:47;-2.60;99.90
3202;DHT22;34843;48.744;8.958;2022-12-18T12:11:41;-2.60;99.90
3202;DHT22;34843;48.744;8.958;2022-12-18T12:17:42;-2.40;99.90
3202;DHT22;34843;48.744;8.958;2022-12-18T12:20:27;-2.40;99.90
3202;DHT22;34843;48.744;8.958;2022-12-18T12:23:39;-2.30;99.90
3202;DHT22;34843;48.744;8.958;2022-12-18T12:26:35;-2.20;99.90
3202;DHT22;34843;48.744;8.958;2022-12-18T12:35:12;-2.00;99.90
3202;DHT22;34843;48.744;8.958;2022-12-18T12:40:07;-1.90;99.90
3202;DHT22;34843;48.744;8.958;2022-12-18T12:42:42;-1.80;99.90
3202;DHT22;34843;48.744;8.958;2022-12-18T12:48:27;-1.80;99.90
3202;DHT22;34843;48.744;8.958;2022-12-18T12:50:57;-1.80;99.90
3202;DHT22;34843;48.744;8.958;2022-12-18T12:53:32;-1.80;99.90
3202;DHT22;34843;48.744;8.958;2022-12-18T12:55:59;-1.80;99.90
3202;DHT22;34843;48.744;8.958;2022-12-18T12:58:36;-1.70;99.90
3202;DHT22;34843;48.744;8.958;2022-12-18T13:04:08;-1.60;99.90
3202;DHT22;34843;48.744;8.958;2022-12-18T13:06:47;-1.60;99.90
3202;DHT22;34843;48.744;8.958;2022-12-18T13:09:14;-1.50;99.90
3202;DHT22;34843;48.744;8.958;2022-12-18T13:11:45;-1.50;99.90
3202;DHT22;34843;48.744;8.958;2022-12-18T13:14:38;-1.40;99.90
3202;DHT22;34843;48.744;8.958;2022-12-18T13:19:49;-1.40;99.90
3202;DHT22;34843;48.744;8.958;2022-12-18T13:22:23;-1.50;99.90
3202;DHT22;34843;48.744;8.958;2022-12-18T13:24:50;-1.50;99.90
3202;DHT22;34843;48.744;8.958;2022-12-18T13:28:01;-1.60;99.90
3202;DHT22;34843;48.744;8.958;2022-12-18T13:38:35;-1.90;99.90
3202;DHT22;34843;48.744;8.958;2022-12-18T13:41:26;-1.90;99.90
3202;DHT22;34843;48.744;8.958;2022-12-18T13:43:53;-1.90;99.90
3202;DHT22;34843;48.744;8.958;2022-12-18T13:46:29;-1.90;99.90
3202;DHT22;34843;48.744;8.958;2022-12-18T13:48:56;-1.90;99.90
3202;DHT22;34843;48.744;8.958;2022-12-18T13:51:23;-1.90;99.90
3202;DHT22;34843;48.744;8.958;2022-12-18T13:56:46;-1.80;99.90
3202;DHT22;34843;48.744;8.958;2022-12-18T13:59:25;-1.90;99.90
3202;DHT22;34843;48.744;8.958;2022-12-18T14:01:56;-1.90;99.90
3202;DHT22;34843;48.744;8.958;2022-12-18T14:04:33;-1.90;99.90
3202;DHT22;34843;48.744;8.958;2022-12-18T14:07:07;-1.90;99.90
3202;DHT22;34843;48.744;8.958;2022-12-18T14:09:40;-2.00;99.90
3202;DHT22;34843;48.744;8.958;2022-12-18T14:12:06;-2.00;99.90
3202;DHT22;34843;48.744;8.958;2022-12-18T14:14:51;-2.00;99.90
3202;DHT22;34843;48.744;8.958;2022-12-18T14:17:18;-2.00;99.90
3202;DHT22;34843;48.744;8.958;2022-12-18T14:19:49;-2.00;99.90
3202;DHT22;34843;48.744;8.958;2022-12-18T14:22:21;-2.00;99.90
3202;DHT22;34843;48.744;8.958;2022-12-18T14:27:38;-2.10;99.90
3202;DHT22;34843;48.744;8.958;2022-12-18T14:30:31;-2.10;99.90
3202;DHT22;34843;48.744;8.958;2022-12-18T14:33:02;-2.10;99.90
3202;DHT22;34843;48.744;8.958;2022-12-18T14:35:27;-2.20;99.90
3202;DHT22;34843;48.744;8.958;2022-12-18T14:40:36;-2.20;99.90
3202;DHT22;34843;48.744;8.958;2022-12-18T14:43:02;-2.20;99.90
3202;DHT22;34843;48.744;8.958;2022-12-18T14:45:42;-2.30;99.90
3202;DHT22;34843;48.744;8.958;2022-12-18T14:48:16;-2.30;99.90
3202;DHT22;34843;48.744;8.958;2022-12-18T14:50:43;-2.30;99.90
3202;DHT22;34843;48.744;8.958;2022-12-18T14:53:27;-2.30;99.90
3202;DHT22;34843;48.744;8.958;2022-12-18T14:55:54;-2.40;99.90
3202;DHT22;34843;48.744;8.958;2022-12-18T14:58:19;-2.40;99.90
3202;DHT22;34843;48.744;8.958;2022-12-18T15:00:45;-2.50;99.90
3202;DHT22;34843;48.744;8.958;2022-12-18T15:03:16;-2.50;99.90
3202;DHT22;34843;48.744;8.958;2022-12-18T15:05:43;-2.50;99.90
3202;DHT22;34843;48.744;8.958;2022-12-18T15:08:34;-2.50;99.90
3202;DHT22;34843;48.744;8.958;2022-12-18T15:11:00;-2.60;99.90
3202;DHT22;34843;48.744;8.958;2022-12-18T15:13:26;-2.60;99.90
3202;DHT22;34843;48.744;8.958;2022-12-18T15:15:53;-2.70;99.90
3202;DHT22;34843;48.744;8.958;2022-12-18T15:18:41;-2.70;99.90
3202;DHT22;34843;48.744;8.958;2022-12-18T15:21:09;-2.80;99.90
3202;DHT22;34843;48.744;8.958;2022-12-18T15:23:46;-2.80;99.90
3202;DHT22;34843;48.744;8.958;2022-12-18T15:26:14;-2.90;99.90
3202;DHT22;34843;48.744;8.958;2022-12-18T15:28:54;-2.90;99.90
3202;DHT22;34843;48.744;8.958;2022-12-18T15:31:29;-3.00;99.90
3202;DHT22;34843;48.744;8.958;2022-12-18T15:34:19;-3.10;99.90
3202;DHT22;34843;48.744;8.958;2022-12-18T15:36:46;-3.10;99.90
3202;DHT22;34843;48.744;8.958;2022-12-18T15:39:12;-3.20;99.90
3202;DHT22;34843;48.744;8.958;2022-12-18T15:41:38;-3.20;99.90
3202;DHT22;34843;48.744;8.958;2022-12-18T15:44:22;-3.20;99.90
3202;DHT22;34843;48.744;8.958;2022-12-18T15:46:48;-3.30;99.90
3202;DHT22;34843;48.744;8.958;2022-12-18T15:49:13;-3.30;99.90
3202;DHT22;34843;48.744;8.958;2022-12-18T15:51:39;-3.40;99.90
3202;DHT22;34843;48.744;8.958;2022-12-18T15:54:06;-3.50;99.90
3202;DHT22;34843;48.744;8.958;2022-12-18T15:56:34;-3.50;99.90
3202;DHT22;34843;48.744;8.958;2022-12-18T15:59:20;-3.50;99.90
3202;DHT22;34843;48.744;8.958;2022-12-18T16:01:51;-3.50;99.90
3202;DHT22;34843;48.744;8.958;2022-12-18T16:04:19;-3.60;99.90
3202;DHT22;34843;48.744;8.958;2022-12-18T16:06:46;-3.60;99.90
3202;DHT22;34843;48.744;8.958;2022-12-18T16:09:11;-3.70;99.90
3202;DHT22;34843;48.744;8.958;2022-12-18T16:11:39;-3.70;99.90
3202;DHT22;34843;48.744;8.958;2022-12-18T16:14:23;-3.70;99.90
3202;DHT22;34843;48.744;8.958;2022-12-18T16:16:53;-3.70;99.90
3202;DHT22;34843;48.744;8.958;2022-12-18T16:19:19;-3.70;99.90
3202;DHT22;34843;48.744;8.958;2022-12-18T16:21:47;-3.70;99.90
3202;DHT22;34843;48.744;8.958;2022-12-18T16:24:15;-3.70;99.90
3202;DHT22;34843;48.744;8.958;2022-12-18T16:26:41;-3.70;99.90
3202;DHT22;34843;48.744;8.958;2022-12-18T16:29:07;-3.70;99.90
3202;DHT22;34843;48.744;8.958;2022-12-18T16:31:33;-3.70;99.90
3202;DHT22;34843;48.744;8.958;2022-12-18T16:34:19;-3.70;99.90
3202;DHT22;34843;48.744;8.958;2022-12-18T16:36:48;-3.70;99.90
3202;DHT22;34843;48.744;8.958;2022-12-18T16:39:13;-3.60;99.90
3202;DHT22;34843;48.744;8.958;2022-12-18T16:41:39;-3.60;99.90
3202;DHT22;34843;48.744;8.958;2022-12-18T16:44:04;-3.50;99.90
3202;DHT22;34843;48.744;8.958;2022-12-18T16:46:30;-3.50;99.90
3202;DHT22;34843;48.744;8.958;2022-12-18T16:48:57;-3.50;99.90
3202;DHT22;34843;48.744;8.958;2022-12-18T16:51:24;-3.40;99.90
3202;DHT22;34843;48.744;8.958;2022-12-18T16:53:49;-3.40;99.90
3202;DHT22;34843;48.744;8.958;2022-12-18T16:56:15;-3.50;99.90
3202;DHT22;34843;48.744;8.958;2022-12-18T16:58:40;-3.50;99.90
3202;DHT22;34843;48.744;8.958;2022-12-18T17:01:10;-3.40;99.90
3202;DHT22;34843;48.744;8.958;2022-12-18T17:03:35;-3.40;99.90
3202;DHT22;34843;48.744;8.958;2022-12-18T17:06:05;-3.40;99.90
3202;DHT22;34843;48.744;8.958;2022-12-18T17:08:31;-3.40;99.90
3202;DHT22;34843;48.744;8.958;2022-12-18T17:11:06;-3.30;99.90
3202;DHT22;34843;48.744;8.958;2022-12-18T17:13:32;-3.30;99.90
3202;DHT22;34843;48.744;8.958;2022-12-18T17:16:05;-3.30;99.90
3202;DHT22;34843;48.744;8.958;2022-12-18T17:18:31;-3.20;99.90
3202;DHT22;34843;48.744;8.958;2022-12-18T17:21:01;-3.20;99.90
3202;DHT22;34843;48.744;8.958;2022-12-18T17:23:27;-3.20;99.90
3202;DHT22;34843;48.744;8.958;2022-12-18T17:25:55;-3.20;99.90
3202;DHT22;34843;48.744;8.958;2022-12-18T17:28:22;-3.20;99.90
3202;DHT22;34843;48.744;8.958;2022-12-18T17:30:48;-3.30;99.90
3202;DHT22;34843;48.744;8.958;2022-12-18T17:33:13;-3.40;99.90